createdAt,value
2018-09-01T00:01:37.518Z,96248.95
2018-09-01T00:04:06.329Z,96253.50
2018-09-01T00:06:35.827Z,96260.44
2018-09-01T00:09:06.031Z,96261.41
2018-09-01T00:11:34.728Z,96262.22
2018-09-01T00:14:04.152Z,96262.86
2018-09-01T00:16:33.076Z,96271.77
2018-09-01T00:19:01.816Z,96273.67
2018-09-01T00:21:31.475Z,96278.39
2018-09-01T00:24:04.184Z,96281.31
2018-09-01T00:26:33.087Z,96278.41
2018-09-01T00:29:01.687Z,96282.95
2018-09-01T00:31:30.696Z,96282.57
2018-09-01T00:33:59.785Z,96286.77
2018-09-01T00:36:29.453Z,96283.83
2018-09-01T00:39:05.623Z,96291.13
2018-09-01T00:41:34.800Z,96299.88
2018-09-01T00:44:03.735Z,96301.47
2018-09-01T00:46:33.157Z,96310.98
2018-09-01T00:49:01.882Z,96327.45
2018-09-01T00:51:30.838Z,96354.97
2018-09-01T00:53:59.482Z,96360.18
2018-09-01T00:56:28.974Z,96342.27
2018-09-01T00:58:57.673Z,96338.38
2018-09-01T01:01:26.362Z,96339.27
2018-09-01T01:03:55.709Z,96326.95
2018-09-01T01:06:24.768Z,96310.86
2018-09-01T01:08:54.062Z,96297.56
2018-09-01T01:11:22.891Z,96294.88
2018-09-01T01:13:51.604Z,96303.89
2018-09-01T01:16:20.293Z,96307.27
2018-09-01T01:18:49.004Z,96309.73
2018-09-01T01:21:18.892Z,96325.61
2018-09-01T01:23:47.463Z,96333.48
2018-09-01T01:26:17.056Z,96332.62
2018-09-01T01:28:45.639Z,96330.03
2018-09-01T01:31:16.174Z,96340.58
2018-09-01T01:33:44.989Z,96336.39
2018-09-01T01:36:13.748Z,96339.70
2018-09-01T01:38:42.563Z,96337.37
2018-09-01T01:41:11.792Z,96337.69
2018-09-01T01:43:40.949Z,96335.97
2018-09-01T01:46:09.508Z,96326.87
2018-09-01T01:48:38.532Z,96325.52
2018-09-01T01:51:07.976Z,96319.98
2018-09-01T01:53:36.805Z,96318.69
2018-09-01T01:56:06.021Z,96309.81
2018-09-01T01:58:35.589Z,96304.89
2018-09-01T02:01:04.168Z,96297.67
2018-09-01T02:03:32.877Z,96309.42
2018-09-01T02:06:09.727Z,96301.98
2018-09-01T02:08:38.412Z,96294.19
2018-09-01T02:11:07.323Z,96303.86
2018-09-01T02:13:36.003Z,96305.46
2018-09-01T02:16:05.464Z,96301.83
2018-09-01T02:18:34.503Z,96305.13
2018-09-01T02:21:03.146Z,96300.62
2018-09-01T02:23:31.807Z,96296.25
2018-09-01T02:26:00.472Z,96289.92
2018-09-01T02:28:29.868Z,96293.97
2018-09-01T02:30:58.648Z,96295.61
2018-09-01T02:33:27.414Z,96305.75
2018-09-01T02:35:56.229Z,96308.55
2018-09-01T02:38:25.344Z,96313.58
2018-09-01T02:40:54.688Z,96315.80
2018-09-01T02:43:23.321Z,96313.56
2018-09-01T02:45:51.868Z,96311.22
2018-09-01T02:48:22.123Z,96302.33
2018-09-01T02:50:51.319Z,96299.89
2018-09-01T02:53:20.388Z,96306.67
2018-09-01T02:55:49.132Z,96304.71
2018-09-01T02:58:17.867Z,96298.55
2018-09-01T03:00:46.756Z,96303.05
2018-09-01T03:03:16.364Z,96306.47
2018-09-01T03:05:45.152Z,96309.20
2018-09-01T03:08:13.860Z,96305.07
2018-09-01T03:10:42.472Z,96301.55
2018-09-01T03:13:12.722Z,96304.13
2018-09-01T03:15:41.916Z,96305.45
2018-09-01T03:18:10.815Z,96315.16
2018-09-01T03:20:39.899Z,96311.66
2018-09-01T03:23:09.266Z,96299.88
2018-09-01T03:25:38.720Z,96302.25
2018-09-01T03:28:07.605Z,96307.09
2018-09-01T03:30:36.463Z,96305.80
2018-09-01T03:33:05.384Z,96304.27
2018-09-01T03:35:33.947Z,96304.56
2018-09-01T03:38:02.956Z,96305.18
2018-09-01T03:40:31.853Z,96296.98
2018-09-01T03:43:00.522Z,96291.96
2018-09-01T03:45:30.457Z,96290.37
2018-09-01T03:47:59.043Z,96292.13
2018-09-01T03:50:27.865Z,96291.14
2018-09-01T03:52:56.503Z,96295.41
2018-09-01T03:55:25.180Z,96295.86
2018-09-01T03:57:53.911Z,96301.11
2018-09-01T04:00:26.683Z,96300.27
2018-09-01T04:02:56.231Z,96310.02
2018-09-01T04:05:24.834Z,96311.80
2018-09-01T04:07:53.535Z,96321.39
2018-09-01T04:10:23.392Z,96319.58
2018-09-01T04:12:52.087Z,96328.83
2018-09-01T04:15:20.746Z,96327.70
2018-09-01T04:17:49.650Z,96327.09
2018-09-01T04:20:19.195Z,96321.45
2018-09-01T04:22:48.832Z,96319.56
2018-09-01T04:25:17.393Z,96316.21
2018-09-01T04:27:46.063Z,96315.74
2018-09-01T04:30:15.322Z,96319.62
2018-09-01T04:32:44.121Z,96322.20
2018-09-01T04:35:13.130Z,96324.06
2018-09-01T04:37:41.886Z,96319.77
2018-09-01T04:40:11.473Z,96322.59
2018-09-01T04:42:40.280Z,96322.65
2018-09-01T04:45:12.031Z,96320.09
2018-09-01T04:47:40.747Z,96318.70
2018-09-01T04:50:09.715Z,96315.91
2018-09-01T04:52:38.427Z,96322.73
2018-09-01T04:55:07.267Z,96319.00
2018-09-01T04:57:36.647Z,96320.31
2018-09-01T05:00:05.900Z,96318.18
2018-09-01T05:02:34.620Z,96325.09
2018-09-01T05:05:04.393Z,96317.08
2018-09-01T05:07:33.000Z,96324.36
2018-09-01T05:10:02.919Z,96320.45
2018-09-01T05:12:31.607Z,96319.39
2018-09-01T05:15:00.292Z,96323.81
2018-09-01T05:17:28.954Z,96329.22
2018-09-01T05:19:57.492Z,96324.09
2018-09-01T05:22:26.520Z,96323.16
2018-09-01T05:24:56.206Z,96319.23
2018-09-01T05:27:24.942Z,96316.05
2018-09-01T05:29:53.855Z,96308.73
2018-09-01T05:32:22.733Z,96307.44
2018-09-01T05:34:51.417Z,96306.36
2018-09-01T05:37:20.112Z,96302.95
2018-09-01T05:39:49.585Z,96303.62
2018-09-01T05:42:18.347Z,96300.11
2018-09-01T05:44:46.955Z,96295.94
2018-09-01T05:47:15.669Z,96294.12
2018-09-01T05:49:44.382Z,96283.83
2018-09-01T05:52:14.388Z,96285.28
2018-09-01T05:54:43.155Z,96284.56
2018-09-01T05:57:12.205Z,96286.53
2018-09-01T05:59:41.109Z,96284.04
2018-09-01T06:02:10.817Z,96279.90
2018-09-01T06:04:39.507Z,96279.63
2018-09-01T06:07:08.326Z,96281.70
2018-09-01T06:09:37.655Z,96284.19
2018-09-01T06:12:06.540Z,96279.05
2018-09-01T06:14:36.227Z,96282.31
2018-09-01T06:17:06.083Z,96284.98
2018-09-01T06:19:34.701Z,96276.91
2018-09-01T06:22:04.228Z,96278.28
2018-09-01T06:24:33.121Z,96271.97
2018-09-01T06:27:05.327Z,96274.13
2018-09-01T06:29:34.010Z,96275.42
2018-09-01T06:32:04.979Z,96269.80
2018-09-01T06:34:33.883Z,96249.44
2018-09-01T06:37:03.067Z,96247.06
2018-09-01T06:39:31.832Z,96244.37
2018-09-01T06:42:00.629Z,96251.98
2018-09-01T06:44:30.326Z,96261.28
2018-09-01T06:46:59.197Z,96256.89
2018-09-01T06:49:27.888Z,96266.23
2018-09-01T06:51:56.640Z,96271.67
2018-09-01T06:54:25.260Z,96271.39
2018-09-01T06:56:53.943Z,96278.55
2018-09-01T06:59:23.564Z,96284.78
2018-09-01T07:01:52.439Z,96284.30
2018-09-01T07:04:21.355Z,96289.49
2018-09-01T07:06:50.124Z,96290.81
2018-09-01T07:09:18.819Z,96294.23
2018-09-01T07:11:47.707Z,96293.92
2018-09-01T07:14:16.384Z,96296.52
2018-09-01T07:16:45.204Z,96301.55
2018-09-01T07:22:16.364Z,96305.92
2018-09-01T07:24:45.062Z,96312.91
2018-09-01T07:27:13.596Z,96308.67
2018-09-01T07:29:42.251Z,96328.47
2018-09-01T07:32:10.894Z,96329.28
2018-09-01T07:34:39.634Z,96333.67
2018-09-01T07:37:08.999Z,96325.22
2018-09-01T07:39:45.455Z,96324.59
2018-09-01T07:42:14.059Z,96331.08
2018-09-01T07:44:42.991Z,96326.52
2018-09-01T07:47:12.217Z,96330.73
2018-09-01T07:49:41.288Z,96332.86
2018-09-01T07:52:09.965Z,96320.70
2018-09-01T07:54:46.758Z,96284.68
2018-09-01T07:57:16.452Z,96328.13
2018-09-01T07:59:45.111Z,96329.94
2018-09-01T08:02:13.971Z,96326.52
2018-09-01T08:04:43.711Z,96331.20
2018-09-01T08:07:13.924Z,96332.67
2018-09-01T08:09:43.276Z,96337.22
2018-09-01T08:12:12.178Z,96347.61
2018-09-01T08:14:41.171Z,96348.92
2018-09-01T08:17:10.348Z,96360.61
2018-09-01T08:19:39.759Z,96365.98
2018-09-01T08:22:10.604Z,96372.61
2018-09-01T08:24:39.330Z,96379.13
2018-09-01T08:27:07.868Z,96376.34
2018-09-01T08:29:36.634Z,96377.17
2018-09-01T08:32:06.265Z,96382.20
2018-09-01T08:34:35.180Z,96383.33
2018-09-01T08:37:04.369Z,96382.69
2018-09-01T08:39:33.881Z,96383.64
2018-09-01T08:42:02.711Z,96388.53
2018-09-01T08:44:31.554Z,96401.20
2018-09-01T08:47:00.977Z,96402.65
2018-09-01T08:49:29.593Z,96397.77
2018-09-01T08:51:58.294Z,96401.20
2018-09-01T08:54:27.031Z,96409.30
2018-09-01T08:56:55.643Z,96405.72
2018-09-01T08:59:24.344Z,96400.06
2018-09-01T09:01:53.445Z,96404.10
2018-09-01T09:04:22.655Z,96410.13
2018-09-01T09:06:52.872Z,96408.34
2018-09-01T09:09:21.748Z,96405.42
2018-09-01T09:11:50.693Z,96407.36
2018-09-01T09:14:19.572Z,96416.92
2018-09-01T09:16:48.520Z,96424.89
2018-09-01T09:19:18.454Z,96428.13
2018-09-01T09:21:48.068Z,96428.13
2018-09-01T09:24:17.028Z,96426.98
2018-09-01T09:26:45.604Z,96427.30
2018-09-01T09:29:14.733Z,96433.65
2018-09-01T09:31:43.565Z,96437.20
2018-09-01T09:34:13.193Z,96432.02
2018-09-01T09:36:41.793Z,96439.17
2018-09-01T09:39:12.793Z,96442.41
2018-09-01T09:41:41.828Z,96439.83
2018-09-01T09:44:10.484Z,96432.66
2018-09-01T09:46:39.521Z,96437.69
2018-09-01T09:49:08.581Z,96430.25
2018-09-01T09:51:37.590Z,96422.62
2018-09-01T09:54:06.306Z,96419.52
2018-09-01T09:56:35.735Z,96423.60
2018-09-01T09:59:04.589Z,96422.27
2018-09-01T10:01:39.891Z,96428.93
2018-09-01T10:04:10.005Z,96435.59
2018-09-01T10:06:39.308Z,96440.87
2018-09-01T10:09:13.145Z,96440.09
2018-09-01T10:11:44.265Z,96430.06
2018-09-01T10:14:13.573Z,96426.17
2018-09-01T10:16:42.653Z,96429.41
2018-09-01T10:19:11.589Z,96436.39
2018-09-01T10:21:40.417Z,96437.05
2018-09-01T10:24:09.328Z,96438.80
2018-09-01T10:26:38.530Z,96449.37
2018-09-01T10:29:07.778Z,96456.00
2018-09-01T10:31:36.571Z,96454.11
2018-09-01T10:34:05.486Z,96452.41
2018-09-01T10:36:34.376Z,96447.88
2018-09-01T10:39:05.487Z,96446.45
2018-09-01T10:41:34.591Z,96444.34
2018-09-01T10:44:04.591Z,96430.55
2018-09-01T10:46:33.275Z,96425.05
2018-09-01T10:49:02.077Z,96425.22
2018-09-01T10:51:31.858Z,96421.30
2018-09-01T10:54:01.103Z,96414.98
2018-09-01T10:56:30.012Z,96410.92
2018-09-01T10:59:08.261Z,96407.34
2018-09-01T11:01:45.940Z,96409.30
2018-09-01T11:04:25.239Z,96405.41
2018-09-01T11:06:55.111Z,96385.92
2018-09-01T11:09:23.946Z,96391.27
2018-09-01T11:11:52.709Z,96381.52
2018-09-01T11:14:21.496Z,96382.95
2018-09-01T11:16:50.181Z,96388.16
2018-09-01T11:19:22.017Z,96389.32
2018-09-01T11:22:03.048Z,96391.75
2018-09-01T11:24:31.793Z,96400.83
2018-09-01T11:27:00.545Z,96399.70
2018-09-01T11:29:29.376Z,96404.07
2018-09-01T11:31:58.668Z,96404.89
2018-09-01T11:34:43.095Z,96410.27
2018-09-01T11:37:12.001Z,96410.59
2018-09-01T11:39:49.879Z,96417.89
2018-09-01T11:42:27.666Z,96432.86
2018-09-01T11:44:56.556Z,96444.72
2018-09-01T11:47:25.413Z,96440.83
2018-09-01T11:49:54.110Z,96447.16
2018-09-01T11:52:24.019Z,96449.27
2018-09-01T11:54:53.676Z,96450.53
2018-09-01T11:57:23.858Z,96449.57
2018-09-01T11:59:52.539Z,96453.14
2018-09-01T12:02:21.312Z,96453.48
2018-09-01T12:04:50.484Z,96460.28
2018-09-01T12:07:20.123Z,96465.82
2018-09-01T12:09:49.292Z,96480.41
2018-09-01T12:12:18.208Z,96481.70
2018-09-01T12:14:46.817Z,96490.78
2018-09-01T12:17:15.575Z,96504.42
2018-09-01T12:19:44.690Z,96509.64
2018-09-01T12:22:14.193Z,96511.25
2018-09-01T12:24:43.426Z,96516.77
2018-09-01T12:27:13.581Z,96529.09
2018-09-01T12:29:42.436Z,96522.81
2018-09-01T12:32:11.083Z,96505.72
2018-09-01T12:34:39.638Z,96502.62
2018-09-01T12:37:08.358Z,96505.53
2018-09-01T12:39:37.175Z,96501.11
2018-09-01T12:42:06.495Z,96501.48
2018-09-01T12:44:35.235Z,96495.23
2018-09-01T12:47:04.000Z,96489.73
2018-09-01T12:49:33.144Z,96490.89
2018-09-01T12:52:01.777Z,96487.02
2018-09-01T12:54:30.722Z,96481.98
2018-09-01T12:56:59.635Z,96476.82
2018-09-01T12:59:28.423Z,96475.52
2018-09-01T13:02:08.181Z,96484.28
2018-09-01T13:04:46.823Z,96478.10
2018-09-01T13:07:24.786Z,96473.09
2018-09-01T13:09:53.571Z,96468.85
2018-09-01T13:12:22.271Z,96457.95
2018-09-01T13:14:50.911Z,96446.25
2018-09-01T13:17:19.602Z,96441.08
2018-09-01T13:19:48.323Z,96438.49
2018-09-01T13:22:17.588Z,96423.91
2018-09-01T13:24:46.267Z,96411.91
2018-09-01T13:27:15.374Z,96403.78
2018-09-01T13:29:45.050Z,96403.47
2018-09-01T13:32:14.624Z,96393.08
2018-09-01T13:34:51.636Z,96386.75
2018-09-01T13:37:28.101Z,96375.21
2018-09-01T13:39:56.854Z,96372.31
2018-09-01T13:42:25.704Z,96371.98
2018-09-01T13:44:54.295Z,96375.86
2018-09-01T13:47:23.067Z,96380.54
2018-09-01T13:49:51.859Z,96381.36
2018-09-01T13:52:20.580Z,96385.68
2018-09-01T13:54:49.311Z,96383.47
2018-09-01T13:57:18.054Z,96387.21
2018-09-01T13:59:46.709Z,96388.21
2018-09-01T14:02:15.387Z,96391.77
2018-09-01T14:04:44.075Z,96394.53
2018-09-01T14:07:13.231Z,96386.25
2018-09-01T14:09:43.512Z,96396.63
2018-09-01T14:12:12.163Z,96409.63
2018-09-01T14:14:41.058Z,96423.91
2018-09-01T14:17:09.997Z,96432.04
2018-09-01T14:19:39.459Z,96427.80
2018-09-01T14:22:08.603Z,96431.06
2018-09-01T14:24:37.186Z,96430.08
2018-09-01T14:27:06.145Z,96431.39
2018-09-01T14:29:34.986Z,96434.33
2018-09-01T14:32:03.683Z,96442.41
2018-09-01T14:34:32.988Z,96453.43
2018-09-01T14:37:01.766Z,96454.70
2018-09-01T14:39:30.436Z,96465.61
2018-09-01T14:41:59.647Z,96471.16
2018-09-01T14:44:28.468Z,96475.78
2018-09-01T14:46:58.776Z,96472.30
2018-09-01T14:49:27.584Z,96476.61
2018-09-01T14:51:56.237Z,96476.57
2018-09-01T14:54:24.991Z,96482.77
2018-09-01T14:56:54.831Z,96484.24
2018-09-01T14:59:23.608Z,96493.72
2018-09-01T15:01:52.416Z,96489.85
2018-09-01T15:04:21.198Z,96479.02
2018-09-01T15:06:51.054Z,96481.31
2018-09-01T15:09:19.679Z,96486.50
2018-09-01T15:11:48.385Z,96490.44
2018-09-01T15:14:17.732Z,96495.30
2018-09-01T15:16:46.356Z,96489.78
2018-09-01T15:19:15.736Z,96489.46
2018-09-01T15:21:44.609Z,96489.63
2018-09-01T15:24:15.094Z,96486.05
2018-09-01T15:26:45.412Z,96485.88
2018-09-01T15:29:14.360Z,96477.44
2018-09-01T15:31:43.385Z,96481.69
2018-09-01T15:34:12.007Z,96477.28
2018-09-01T15:36:40.803Z,96471.63
2018-09-01T15:39:09.436Z,96475.52
2018-09-01T15:41:39.928Z,96475.52
2018-09-01T15:44:10.552Z,96471.92
2018-09-01T15:46:39.412Z,96462.84
2018-09-01T15:49:08.128Z,96457.64
2018-09-01T15:51:37.135Z,96452.80
2018-09-01T15:54:06.113Z,96445.16
2018-09-01T15:56:35.937Z,96428.44
2018-09-01T15:59:05.260Z,96417.27
2018-09-01T16:01:34.567Z,96414.16
2018-09-01T16:04:03.244Z,96414.16
2018-09-01T16:06:31.978Z,96404.43
2018-09-01T16:09:01.000Z,96402.16
2018-09-01T16:11:29.780Z,96411.58
2018-09-01T16:13:58.747Z,96411.41
2018-09-01T16:16:27.477Z,96426.19
2018-09-01T16:22:03.924Z,96420.52
2018-09-01T16:24:32.628Z,96415.62
2018-09-01T16:27:01.257Z,96409.61
2018-09-01T16:29:29.923Z,96400.52
2018-09-01T16:32:02.771Z,96400.22
2018-09-01T16:34:31.460Z,96400.88
2018-09-01T16:37:00.122Z,96398.91
2018-09-01T16:39:29.802Z,96405.08
2018-09-01T16:41:58.516Z,96411.40
2018-09-01T16:44:27.144Z,96416.27
2018-09-01T16:46:56.035Z,96425.37
2018-09-01T16:49:24.719Z,96440.09
2018-09-01T16:51:53.415Z,96451.61
2018-09-01T16:54:22.172Z,96452.73
2018-09-01T16:56:50.998Z,96453.20
2018-09-01T16:59:19.679Z,96460.35
2018-09-01T17:01:49.264Z,96465.86
2018-09-01T17:04:18.502Z,96462.45
2018-09-01T17:06:47.172Z,96464.67
2018-09-01T17:09:16.543Z,96470.02
2018-09-01T17:11:47.144Z,96470.02
2018-09-01T17:14:15.895Z,96476.38
2018-09-01T17:16:44.559Z,96478.77
2018-09-01T17:19:13.253Z,96477.97
2018-09-01T17:21:41.964Z,96477.97
2018-09-01T17:24:10.667Z,96481.52
2018-09-01T17:26:39.324Z,96484.91
2018-09-01T17:29:08.811Z,96484.56
2018-09-01T17:31:37.698Z,96490.55
2018-09-01T17:34:06.616Z,96493.33
2018-09-01T17:36:35.648Z,96488.30
2018-09-01T17:39:07.412Z,96491.98
2018-09-01T17:41:36.284Z,96490.20
2018-09-01T17:44:05.215Z,96483.84
2018-09-01T17:46:34.385Z,96485.97
2018-09-01T17:49:03.304Z,96486.31
2018-09-01T17:51:32.084Z,96488.40
2018-09-01T17:54:00.787Z,96490.84
2018-09-01T17:56:29.528Z,96498.27
2018-09-01T17:58:58.168Z,96488.69
2018-09-01T18:01:28.041Z,96489.64
2018-09-01T18:03:56.754Z,96493.02
2018-09-01T18:06:25.856Z,96486.73
2018-09-01T18:08:55.171Z,96481.67
2018-09-01T18:11:23.823Z,96487.80
2018-09-01T18:13:52.812Z,96495.83
2018-09-01T18:16:21.848Z,96497.75
2018-09-01T18:18:50.676Z,96502.45
2018-09-01T18:21:19.789Z,96498.48
2018-09-01T18:23:48.391Z,96501.77
2018-09-01T18:26:17.143Z,96505.31
2018-09-01T18:28:46.075Z,96508.45
2018-09-01T18:31:15.227Z,96500.95
2018-09-01T18:33:44.292Z,96503.06
2018-09-01T18:36:12.905Z,96509.70
2018-09-01T18:38:41.605Z,96504.39
2018-09-01T18:41:10.570Z,96505.38
2018-09-01T18:43:39.116Z,96506.63
2018-09-01T18:46:08.052Z,96509.63
2018-09-01T18:48:36.768Z,96506.31
2018-09-01T18:51:05.710Z,96512.03
2018-09-01T18:53:35.775Z,96516.39
2018-09-01T18:56:04.704Z,96512.61
2018-09-01T18:58:33.570Z,96508.72
2018-09-01T19:01:02.687Z,96509.84
2018-09-01T19:03:31.945Z,96511.36
2018-09-01T19:06:00.778Z,96507.65
2018-09-01T19:08:29.503Z,96502.52
2018-09-01T19:10:58.391Z,96495.84
2018-09-01T19:13:27.443Z,96490.52
2018-09-01T19:15:56.682Z,96483.42
2018-09-01T19:18:25.653Z,96475.07
2018-09-01T19:20:54.543Z,96484.50
2018-09-01T19:23:23.609Z,96492.38
2018-09-01T19:25:52.361Z,96494.80
2018-09-01T19:28:21.067Z,96494.14
2018-09-01T19:30:49.749Z,96497.03
2018-09-01T19:33:19.845Z,96493.35
2018-09-01T19:35:48.735Z,96496.46
2018-09-01T19:38:18.071Z,96498.27
2018-09-01T19:40:47.105Z,96492.20
2018-09-01T19:43:16.003Z,96489.73
2018-09-01T19:45:44.818Z,96484.29
2018-09-01T19:48:13.575Z,96479.89
2018-09-01T19:50:43.440Z,96479.95
2018-09-01T19:53:12.419Z,96483.22
2018-09-01T19:55:41.048Z,96496.78
2018-09-01T19:58:10.413Z,96495.33
2018-09-01T20:00:40.124Z,96495.33
2018-09-01T20:03:10.064Z,96494.39
2018-09-01T20:05:38.672Z,96492.89
2018-09-01T20:08:08.821Z,96491.81
2018-09-01T20:10:46.975Z,96489.62
2018-09-01T20:13:26.157Z,96485.75
2018-09-01T20:16:04.303Z,96480.09
2018-09-01T20:18:32.922Z,96478.59
2018-09-01T20:21:01.499Z,96466.73
2018-09-01T20:23:30.765Z,96463.38
2018-09-01T20:25:59.695Z,96453.62
2018-09-01T20:28:28.626Z,96448.60
2018-09-01T20:30:57.492Z,96441.56
2018-09-01T20:33:27.659Z,96444.67
2018-09-01T20:35:57.711Z,96444.83
2018-09-01T20:38:28.259Z,96453.73
2018-09-01T20:40:57.035Z,96453.80
2018-09-01T20:43:26.615Z,96456.59
2018-09-01T20:45:55.537Z,96455.08
2018-09-01T20:48:24.672Z,96456.37
2018-09-01T20:50:53.508Z,96463.09
2018-09-01T20:53:22.187Z,96465.38
2018-09-01T20:55:51.072Z,96459.43
2018-09-01T20:58:20.399Z,96462.34
2018-09-01T21:00:49.121Z,96465.59
2018-09-01T21:03:18.075Z,96463.83
2018-09-01T21:05:46.912Z,96469.01
2018-09-01T21:08:16.066Z,96468.59
2018-09-01T21:10:44.804Z,96474.66
2018-09-01T21:13:13.717Z,96466.84
2018-09-01T21:15:42.360Z,96468.23
2018-09-01T21:18:11.220Z,96468.59
2018-09-01T21:20:39.948Z,96473.47
2018-09-01T21:23:09.911Z,96470.92
2018-09-01T21:25:38.683Z,96470.98
2018-09-01T21:28:21.881Z,96466.52
2018-09-01T21:30:59.145Z,96469.12
2018-09-01T21:33:35.953Z,96474.51
2018-09-01T21:36:13.509Z,96472.53
2018-09-01T21:38:55.988Z,96470.11
2018-09-01T21:41:35.975Z,96470.32
2018-09-01T21:44:04.884Z,96476.11
2018-09-01T21:46:35.309Z,96484.70
2018-09-01T21:49:04.492Z,96486.14
2018-09-01T21:51:33.333Z,96484.97
2018-09-01T21:54:02.095Z,96481.44
2018-09-01T21:56:31.569Z,96486.05
2018-09-01T21:59:00.447Z,96484.80
2018-09-01T22:01:34.847Z,96479.42
2018-09-01T22:04:03.556Z,96477.66
2018-09-01T22:06:32.384Z,96482.31
2018-09-01T22:09:02.203Z,96479.26
2018-09-01T22:11:30.858Z,96471.27
2018-09-01T22:13:59.654Z,96479.41
2018-09-01T22:16:28.234Z,96476.97
2018-09-01T22:21:51.329Z,96471.02
2018-09-01T22:24:20.317Z,96482.00
2018-09-01T22:26:48.980Z,96483.77
2018-09-01T22:29:17.717Z,96484.91
2018-09-01T22:31:47.184Z,96490.23
2018-09-01T22:34:15.729Z,96485.56
2018-09-01T22:36:44.624Z,96491.41
2018-09-01T22:39:14.056Z,96495.81
2018-09-01T22:41:51.197Z,96496.03
2018-09-01T22:44:30.874Z,96499.97
2018-09-01T22:47:14.333Z,96496.25
2018-09-01T22:49:51.906Z,96496.25
2018-09-01T22:52:21.314Z,96500.03
2018-09-01T22:54:50.206Z,96497.39
2018-09-01T22:57:19.041Z,96496.25
2018-09-01T22:59:47.915Z,96494.69
2018-09-01T23:02:17.035Z,96500.03
2018-09-01T23:04:46.088Z,96493.61
2018-09-01T23:07:15.011Z,96485.38
2018-09-01T23:09:43.936Z,96478.13
2018-09-01T23:12:12.482Z,96478.65
2018-09-01T23:14:41.095Z,96478.65
2018-09-01T23:17:09.865Z,96478.97
2018-09-01T23:19:39.599Z,96481.70
2018-09-01T23:22:08.380Z,96479.38
2018-09-01T23:24:37.027Z,96482.84
2018-09-01T23:29:56.569Z,96485.95
2018-09-01T23:32:25.380Z,96487.55
2018-09-01T23:34:54.336Z,96491.44
2018-09-01T23:37:31.080Z,96492.63
2018-09-01T23:39:59.667Z,96497.14
2018-09-01T23:42:29.187Z,96501.27
2018-09-01T23:44:57.865Z,96494.06
2018-09-01T23:47:27.441Z,96491.38
2018-09-01T23:49:59.555Z,96496.08
2018-09-01T23:52:28.903Z,96496.02
2018-09-01T23:54:57.717Z,96495.12
2018-09-01T23:57:27.221Z,96491.09
2018-09-01T23:59:55.943Z,96488.72
